Tilton, Mississippi
Current Conditions -  °F | °C
As of 12:53 AM on Friday 19 Dec 2014 (Local Time) from KMCB Reporting Station
Haze Haze  
Wind Chill: 51°   Ceiling: 2400
Heat Index: 51°   Visibility: 6mi
Dew Point: 49°   Wind: 3mph
Humidity: 92%   Direction: 40°NE
Pressure: 30.14"   Gusts: NA
Location:  31.4742°N, 90.119°W
Report Text: KMCB 190653Z AUTO 04003KT 6SM BR BKN024 OVC043 11/09 A3014 RMK AO2 SLP203 T01060094 $
Loading
Personal Weather Stations






























Interactive Weather Map New forecast layout! Learn more

10-Day Weather Forecast

Advertisements
Track Severe Weather on mobile